sensor_id;sensor_type;location;lat;lon;timestamp;P1;durP1;ratioP1;P2;durP2;ratioP2
47669;SDS011;33408;52.062;11.722;2023-07-22T00:01:48;8.98;;;3.53;;
47669;SDS011;33408;52.062;11.722;2023-07-22T00:04:15;7.75;;;3.83;;
47669;SDS011;33408;52.062;11.722;2023-07-22T00:06:42;5.47;;;3.33;;
47669;SDS011;33408;52.062;11.722;2023-07-22T00:09:08;6.25;;;3.63;;
47669;SDS011;33408;52.062;11.722;2023-07-22T00:11:37;6.03;;;3.10;;
47669;SDS011;33408;52.062;11.722;2023-07-22T00:14:03;8.27;;;3.83;;
47669;SDS011;33408;52.062;11.722;2023-07-22T00:16:31;5.72;;;3.33;;
47669;SDS011;33408;52.062;11.722;2023-07-22T00:18:58;6.38;;;3.78;;
47669;SDS011;33408;52.062;11.722;2023-07-22T00:21:24;6.63;;;3.50;;
47669;SDS011;33408;52.062;11.722;2023-07-22T00:23:51;7.40;;;3.58;;
47669;SDS011;33408;52.062;11.722;2023-07-22T00:26:18;8.07;;;4.03;;
47669;SDS011;33408;52.062;11.722;2023-07-22T00:28:45;7.20;;;4.07;;
47669;SDS011;33408;52.062;11.722;2023-07-22T00:31:12;6.20;;;3.78;;
47669;SDS011;33408;52.062;11.722;2023-07-22T00:33:39;6.25;;;3.55;;
47669;SDS011;33408;52.062;11.722;2023-07-22T00:36:05;7.50;;;4.30;;
47669;SDS011;33408;52.062;11.722;2023-07-22T00:38:32;5.93;;;3.47;;
47669;SDS011;33408;52.062;11.722;2023-07-22T00:40:58;7.20;;;4.32;;
47669;SDS011;33408;52.062;11.722;2023-07-22T00:43:25;6.80;;;3.08;;
47669;SDS011;33408;52.062;11.722;2023-07-22T00:45:53;6.32;;;3.45;;
47669;SDS011;33408;52.062;11.722;2023-07-22T00:48:19;8.52;;;3.55;;
47669;SDS011;33408;52.062;11.722;2023-07-22T00:50:46;7.47;;;3.83;;
47669;SDS011;33408;52.062;11.722;2023-07-22T00:53:13;5.97;;;4.00;;
47669;SDS011;33408;52.062;11.722;2023-07-22T00:55:40;7.90;;;4.05;;
47669;SDS011;33408;52.062;11.722;2023-07-22T00:58:07;7.38;;;3.38;;
47669;SDS011;33408;52.062;11.722;2023-07-22T01:00:35;6.85;;;3.30;;
47669;SDS011;33408;52.062;11.722;2023-07-22T01:03:03;7.30;;;3.80;;
47669;SDS011;33408;52.062;11.722;2023-07-22T01:05:31;7.93;;;3.65;;
47669;SDS011;33408;52.062;11.722;2023-07-22T01:07:59;7.25;;;3.50;;
47669;SDS011;33408;52.062;11.722;2023-07-22T01:10:26;7.05;;;3.15;;
47669;SDS011;33408;52.062;11.722;2023-07-22T01:12:53;10.35;;;4.22;;
47669;SDS011;33408;52.062;11.722;2023-07-22T01:15:22;6.13;;;3.17;;
47669;SDS011;33408;52.062;11.722;2023-07-22T01:17:49;8.50;;;4.03;;
47669;SDS011;33408;52.062;11.722;2023-07-22T01:20:18;6.60;;;3.38;;
47669;SDS011;33408;52.062;11.722;2023-07-22T01:22:49;6.10;;;3.53;;
47669;SDS011;33408;52.062;11.722;2023-07-22T01:25:17;6.65;;;4.15;;
47669;SDS011;33408;52.062;11.722;2023-07-22T01:27:46;6.55;;;3.47;;
47669;SDS011;33408;52.062;11.722;2023-07-22T01:30:13;8.25;;;4.30;;
47669;SDS011;33408;52.062;11.722;2023-07-22T01:32:40;7.53;;;3.70;;
47669;SDS011;33408;52.062;11.722;2023-07-22T01:35:06;7.43;;;3.70;;
47669;SDS011;33408;52.062;11.722;2023-07-22T01:37:34;5.90;;;3.78;;
47669;SDS011;33408;52.062;11.722;2023-07-22T01:40:02;6.80;;;3.80;;
47669;SDS011;33408;52.062;11.722;2023-07-22T01:42:36;7.85;;;3.92;;
47669;SDS011;33408;52.062;11.722;2023-07-22T01:45:03;7.15;;;4.13;;
47669;SDS011;33408;52.062;11.722;2023-07-22T01:47:32;9.00;;;4.28;;
47669;SDS011;33408;52.062;11.722;2023-07-22T01:49:59;8.82;;;4.90;;
47669;SDS011;33408;52.062;11.722;2023-07-22T01:52:26;7.97;;;4.65;;
47669;SDS011;33408;52.062;11.722;2023-07-22T01:54:52;6.10;;;3.75;;
47669;SDS011;33408;52.062;11.722;2023-07-22T01:57:20;7.15;;;3.72;;
47669;SDS011;33408;52.062;11.722;2023-07-22T01:59:47;8.75;;;4.45;;
47669;SDS011;33408;52.062;11.722;2023-07-22T02:02:13;7.57;;;3.95;;
47669;SDS011;33408;52.062;11.722;2023-07-22T02:04:40;7.90;;;4.68;;
47669;SDS011;33408;52.062;11.722;2023-07-22T02:07:06;9.25;;;4.60;;
47669;SDS011;33408;52.062;11.722;2023-07-22T02:09:33;9.50;;;4.85;;
47669;SDS011;33408;52.062;11.722;2023-07-22T02:12:00;8.10;;;4.82;;
47669;SDS011;33408;52.062;11.722;2023-07-22T02:14:29;6.55;;;4.15;;
47669;SDS011;33408;52.062;11.722;2023-07-22T02:16:55;7.28;;;3.80;;
47669;SDS011;33408;52.062;11.722;2023-07-22T02:19:22;7.97;;;3.55;;
47669;SDS011;33408;52.062;11.722;2023-07-22T02:21:49;7.38;;;4.25;;
47669;SDS011;33408;52.062;11.722;2023-07-22T02:24:15;6.90;;;3.83;;
47669;SDS011;33408;52.062;11.722;2023-07-22T02:26:42;6.50;;;3.83;;
47669;SDS011;33408;52.062;11.722;2023-07-22T02:29:10;8.43;;;4.65;;
47669;SDS011;33408;52.062;11.722;2023-07-22T02:31:38;6.68;;;3.90;;
47669;SDS011;33408;52.062;11.722;2023-07-22T02:34:05;8.00;;;4.30;;
47669;SDS011;33408;52.062;11.722;2023-07-22T02:36:32;6.63;;;3.95;;
47669;SDS011;33408;52.062;11.722;2023-07-22T02:38:58;6.88;;;4.32;;
47669;SDS011;33408;52.062;11.722;2023-07-22T02:41:25;8.07;;;4.47;;
47669;SDS011;33408;52.062;11.722;2023-07-22T02:43:52;7.78;;;4.53;;
47669;SDS011;33408;52.062;11.722;2023-07-22T02:46:18;5.63;;;3.53;;
47669;SDS011;33408;52.062;11.722;2023-07-22T02:48:46;5.97;;;3.78;;
47669;SDS011;33408;52.062;11.722;2023-07-22T02:51:13;6.72;;;4.07;;
47669;SDS011;33408;52.062;11.722;2023-07-22T02:53:40;7.60;;;4.03;;
47669;SDS011;33408;52.062;11.722;2023-07-22T02:56:07;8.40;;;4.25;;
47669;SDS011;33408;52.062;11.722;2023-07-22T02:58:36;9.77;;;4.07;;
47669;SDS011;33408;52.062;11.722;2023-07-22T03:01:02;7.22;;;3.80;;
47669;SDS011;33408;52.062;11.722;2023-07-22T03:03:29;8.77;;;4.93;;
47669;SDS011;33408;52.062;11.722;2023-07-22T03:05:59;6.78;;;4.57;;
47669;SDS011;33408;52.062;11.722;2023-07-22T03:08:26;6.57;;;4.00;;
47669;SDS011;33408;52.062;11.722;2023-07-22T03:10:52;7.28;;;3.78;;
47669;SDS011;33408;52.062;11.722;2023-07-22T03:13:19;8.73;;;4.82;;
47669;SDS011;33408;52.062;11.722;2023-07-22T03:15:45;7.00;;;4.15;;
47669;SDS011;33408;52.062;11.722;2023-07-22T03:18:12;9.18;;;5.03;;
47669;SDS011;33408;52.062;11.722;2023-07-22T03:20:39;9.18;;;5.25;;
47669;SDS011;33408;52.062;11.722;2023-07-22T03:23:07;10.30;;;5.57;;
47669;SDS011;33408;52.062;11.722;2023-07-22T03:25:34;8.27;;;4.85;;
47669;SDS011;33408;52.062;11.722;2023-07-22T03:28:02;10.30;;;5.68;;
47669;SDS011;33408;52.062;11.722;2023-07-22T03:30:30;9.55;;;6.07;;
47669;SDS011;33408;52.062;11.722;2023-07-22T03:32:57;8.27;;;5.30;;
47669;SDS011;33408;52.062;11.722;2023-07-22T03:35:23;9.25;;;5.80;;
47669;SDS011;33408;52.062;11.722;2023-07-22T03:37:50;9.23;;;5.85;;
47669;SDS011;33408;52.062;11.722;2023-07-22T03:40:18;7.85;;;5.35;;
47669;SDS011;33408;52.062;11.722;2023-07-22T03:42:45;8.63;;;5.90;;
47669;SDS011;33408;52.062;11.722;2023-07-22T03:45:12;11.82;;;6.22;;
47669;SDS011;33408;52.062;11.722;2023-07-22T03:47:38;8.68;;;6.00;;
47669;SDS011;33408;52.062;11.722;2023-07-22T03:50:06;9.52;;;5.82;;
47669;SDS011;33408;52.062;11.722;2023-07-22T03:52:33;9.18;;;5.82;;
47669;SDS011;33408;52.062;11.722;2023-07-22T03:55:00;10.50;;;6.50;;
47669;SDS011;33408;52.062;11.722;2023-07-22T03:57:28;8.63;;;5.68;;
47669;SDS011;33408;52.062;11.722;2023-07-22T03:59:55;8.10;;;5.65;;
47669;SDS011;33408;52.062;11.722;2023-07-22T04:02:22;8.77;;;6.07;;
47669;SDS011;33408;52.062;11.722;2023-07-22T04:04:49;8.18;;;5.20;;
47669;SDS011;33408;52.062;11.722;2023-07-22T04:07:16;9.23;;;5.25;;
47669;SDS011;33408;52.062;11.722;2023-07-22T04:09:43;7.55;;;4.53;;
47669;SDS011;33408;52.062;11.722;2023-07-22T04:12:10;9.25;;;4.72;;
47669;SDS011;33408;52.062;11.722;2023-07-22T04:14:39;8.57;;;5.22;;
47669;SDS011;33408;52.062;11.722;2023-07-22T04:17:05;6.97;;;4.47;;
47669;SDS011;33408;52.062;11.722;2023-07-22T04:19:32;8.25;;;5.43;;
47669;SDS011;33408;52.062;11.722;2023-07-22T04:21:59;8.35;;;5.35;;
47669;SDS011;33408;52.062;11.722;2023-07-22T04:24:29;8.43;;;5.57;;
47669;SDS011;33408;52.062;11.722;2023-07-22T04:26:55;8.55;;;5.22;;
47669;SDS011;33408;52.062;11.722;2023-07-22T04:29:22;9.23;;;5.63;;
47669;SDS011;33408;52.062;11.722;2023-07-22T04:31:50;9.50;;;5.35;;
47669;SDS011;33408;52.062;11.722;2023-07-22T04:34:17;8.43;;;4.90;;
47669;SDS011;33408;52.062;11.722;2023-07-22T04:36:43;8.68;;;5.65;;
47669;SDS011;33408;52.062;11.722;2023-07-22T04:39:10;14.98;;;6.25;;
47669;SDS011;33408;52.062;11.722;2023-07-22T04:41:37;9.57;;;5.40;;
47669;SDS011;33408;52.062;11.722;2023-07-22T04:44:03;9.68;;;5.30;;
47669;SDS011;33408;52.062;11.722;2023-07-22T04:46:30;9.55;;;5.68;;
47669;SDS011;33408;52.062;11.722;2023-07-22T04:48:58;10.38;;;5.50;;
47669;SDS011;33408;52.062;11.722;2023-07-22T04:51:25;11.35;;;5.70;;
47669;SDS011;33408;52.062;11.722;2023-07-22T04:53:52;10.57;;;6.38;;
47669;SDS011;33408;52.062;11.722;2023-07-22T04:56:19;10.68;;;5.95;;
47669;SDS011;33408;52.062;11.722;2023-07-22T04:58:46;11.40;;;6.50;;
47669;SDS011;33408;52.062;11.722;2023-07-22T05:01:12;11.98;;;6.47;;
47669;SDS011;33408;52.062;11.722;2023-07-22T05:03:39;9.38;;;6.00;;
47669;SDS011;33408;52.062;11.722;2023-07-22T05:06:07;10.68;;;6.18;;
47669;SDS011;33408;52.062;11.722;2023-07-22T05:08:34;9.93;;;6.00;;
47669;SDS011;33408;52.062;11.722;2023-07-22T05:11:02;9.00;;;5.70;;
47669;SDS011;33408;52.062;11.722;2023-07-22T05:13:29;9.07;;;5.65;;
47669;SDS011;33408;52.062;11.722;2023-07-22T05:15:55;11.13;;;6.55;;
47669;SDS011;33408;52.062;11.722;2023-07-22T05:18:22;11.18;;;6.50;;
47669;SDS011;33408;52.062;11.722;2023-07-22T05:20:49;9.43;;;6.25;;
47669;SDS011;33408;52.062;11.722;2023-07-22T05:23:16;13.98;;;6.30;;
47669;SDS011;33408;52.062;11.722;2023-07-22T05:25:43;9.63;;;6.55;;
47669;SDS011;33408;52.062;11.722;2023-07-22T05:28:10;9.48;;;6.35;;
47669;SDS011;33408;52.062;11.722;2023-07-22T05:30:36;9.55;;;6.18;;
47669;SDS011;33408;52.062;11.722;2023-07-22T05:33:03;9.20;;;5.90;;
47669;SDS011;33408;52.062;11.722;2023-07-22T05:35:29;8.73;;;5.95;;
47669;SDS011;33408;52.062;11.722;2023-07-22T05:37:56;11.98;;;6.88;;
47669;SDS011;33408;52.062;11.722;2023-07-22T05:40:24;9.07;;;5.63;;
47669;SDS011;33408;52.062;11.722;2023-07-22T05:42:50;10.05;;;6.05;;
47669;SDS011;33408;52.062;11.722;2023-07-22T05:45:17;10.50;;;6.40;;
47669;SDS011;33408;52.062;11.722;2023-07-22T05:47:43;9.68;;;6.22;;
47669;SDS011;33408;52.062;11.722;2023-07-22T05:50:10;11.40;;;6.50;;
47669;SDS011;33408;52.062;11.722;2023-07-22T05:52:37;11.50;;;6.88;;
47669;SDS011;33408;52.062;11.722;2023-07-22T05:55:03;12.20;;;6.60;;
47669;SDS011;33408;52.062;11.722;2023-07-22T05:57:32;10.20;;;6.00;;
47669;SDS011;33408;52.062;11.722;2023-07-22T05:59:58;12.73;;;5.80;;
47669;SDS011;33408;52.062;11.722;2023-07-22T06:02:25;10.15;;;5.97;;
47669;SDS011;33408;52.062;11.722;2023-07-22T06:04:52;11.70;;;6.50;;
47669;SDS011;33408;52.062;11.722;2023-07-22T06:07:18;11.48;;;6.45;;
47669;SDS011;33408;52.062;11.722;2023-07-22T06:09:45;10.77;;;6.00;;
47669;SDS011;33408;52.062;11.722;2023-07-22T06:12:11;11.27;;;6.47;;
47669;SDS011;33408;52.062;11.722;2023-07-22T06:14:39;11.90;;;6.03;;
47669;SDS011;33408;52.062;11.722;2023-07-22T06:17:06;12.77;;;6.05;;
47669;SDS011;33408;52.062;11.722;2023-07-22T06:19:32;10.75;;;5.88;;
47669;SDS011;33408;52.062;11.722;2023-07-22T06:21:59;10.50;;;6.15;;
47669;SDS011;33408;52.062;11.722;2023-07-22T06:24:25;8.95;;;5.68;;
47669;SDS011;33408;52.062;11.722;2023-07-22T06:26:52;11.70;;;6.95;;
47669;SDS011;33408;52.062;11.722;2023-07-22T06:29:18;10.63;;;5.47;;
47669;SDS011;33408;52.062;11.722;2023-07-22T06:31:46;9.32;;;5.90;;
47669;SDS011;33408;52.062;11.722;2023-07-22T06:34:13;13.13;;;6.53;;
47669;SDS011;33408;52.062;11.722;2023-07-22T06:36:39;15.88;;;6.32;;
47669;SDS011;33408;52.062;11.722;2023-07-22T06:39:06;12.82;;;5.90;;
47669;SDS011;33408;52.062;11.722;2023-07-22T06:41:33;12.85;;;6.45;;
47669;SDS011;33408;52.062;11.722;2023-07-22T06:43:59;8.48;;;5.13;;
47669;SDS011;33408;52.062;11.722;2023-07-22T06:46:26;11.15;;;5.05;;
47669;SDS011;33408;52.062;11.722;2023-07-22T06:48:54;9.57;;;5.72;;
47669;SDS011;33408;52.062;11.722;2023-07-22T06:51:20;13.65;;;5.20;;
47669;SDS011;33408;52.062;11.722;2023-07-22T06:53:47;10.25;;;5.07;;
47669;SDS011;33408;52.062;11.722;2023-07-22T06:56:14;9.65;;;4.20;;
47669;SDS011;33408;52.062;11.722;2023-07-22T06:58:40;8.40;;;4.53;;
47669;SDS011;33408;52.062;11.722;2023-07-22T07:01:07;8.45;;;4.97;;
47669;SDS011;33408;52.062;11.722;2023-07-22T07:03:33;7.95;;;4.47;;
47669;SDS011;33408;52.062;11.722;2023-07-22T07:06:01;8.80;;;4.63;;
47669;SDS011;33408;52.062;11.722;2023-07-22T07:08:28;7.78;;;4.53;;
47669;SDS011;33408;52.062;11.722;2023-07-22T07:10:55;8.55;;;4.22;;
47669;SDS011;33408;52.062;11.722;2023-07-22T07:13:21;9.00;;;5.03;;
47669;SDS011;33408;52.062;11.722;2023-07-22T07:15:48;10.95;;;4.97;;
47669;SDS011;33408;52.062;11.722;2023-07-22T07:18:15;7.80;;;4.00;;
47669;SDS011;33408;52.062;11.722;2023-07-22T07:20:42;9.38;;;4.70;;
47669;SDS011;33408;52.062;11.722;2023-07-22T07:23:11;9.93;;;4.55;;
47669;SDS011;33408;52.062;11.722;2023-07-22T07:25:37;10.00;;;4.18;;
47669;SDS011;33408;52.062;11.722;2023-07-22T07:28:04;7.95;;;4.78;;
47669;SDS011;33408;52.062;11.722;2023-07-22T07:30:31;90.85;;;11.98;;
47669;SDS011;33408;52.062;11.722;2023-07-22T07:33:00;11.15;;;4.55;;
47669;SDS011;33408;52.062;11.722;2023-07-22T07:35:26;8.35;;;4.72;;
47669;SDS011;33408;52.062;11.722;2023-07-22T07:37:53;15.38;;;4.63;;
47669;SDS011;33408;52.062;11.722;2023-07-22T07:40:21;8.52;;;4.57;;
47669;SDS011;33408;52.062;11.722;2023-07-22T07:42:47;9.48;;;4.10;;
47669;SDS011;33408;52.062;11.722;2023-07-22T07:45:14;17.20;;;5.00;;
47669;SDS011;33408;52.062;11.722;2023-07-22T07:47:42;24.05;;;5.85;;
47669;SDS011;33408;52.062;11.722;2023-07-22T07:50:09;9.40;;;4.72;;
47669;SDS011;33408;52.062;11.722;2023-07-22T07:52:36;8.63;;;4.45;;
47669;SDS011;33408;52.062;11.722;2023-07-22T07:55:04;14.23;;;4.60;;
47669;SDS011;33408;52.062;11.722;2023-07-22T07:57:33;22.65;;;5.38;;
47669;SDS011;33408;52.062;11.722;2023-07-22T07:59:59;35.70;;;6.85;;
47669;SDS011;33408;52.062;11.722;2023-07-22T08:02:26;19.50;;;6.57;;
47669;SDS011;33408;52.062;11.722;2023-07-22T08:04:52;17.90;;;5.80;;
47669;SDS011;33408;52.062;11.722;2023-07-22T08:07:19;13.52;;;5.82;;
47669;SDS011;33408;52.062;11.722;2023-07-22T08:09:46;20.65;;;5.80;;
47669;SDS011;33408;52.062;11.722;2023-07-22T08:12:14;10.23;;;4.28;;
47669;SDS011;33408;52.062;11.722;2023-07-22T08:14:42;18.20;;;6.30;;
47669;SDS011;33408;52.062;11.722;2023-07-22T08:17:08;13.23;;;4.85;;
47669;SDS011;33408;52.062;11.722;2023-07-22T08:19:35;9.15;;;4.03;;
47669;SDS011;33408;52.062;11.722;2023-07-22T08:22:02;16.70;;;5.13;;
47669;SDS011;33408;52.062;11.722;2023-07-22T08:24:29;13.82;;;4.95;;
47669;SDS011;33408;52.062;11.722;2023-07-22T08:26:55;14.23;;;5.05;;
47669;SDS011;33408;52.062;11.722;2023-07-22T08:29:22;12.85;;;4.43;;
47669;SDS011;33408;52.062;11.722;2023-07-22T08:31:50;13.82;;;5.07;;
47669;SDS011;33408;52.062;11.722;2023-07-22T08:34:17;12.57;;;4.72;;
47669;SDS011;33408;52.062;11.722;2023-07-22T08:36:43;20.17;;;5.05;;
47669;SDS011;33408;52.062;11.722;2023-07-22T08:39:10;19.40;;;5.53;;
47669;SDS011;33408;52.062;11.722;2023-07-22T08:41:36;10.63;;;4.25;;
47669;SDS011;33408;52.062;11.722;2023-07-22T08:44:04;11.32;;;4.70;;
47669;SDS011;33408;52.062;11.722;2023-07-22T08:46:32;27.05;;;6.20;;
47669;SDS011;33408;52.062;11.722;2023-07-22T08:49:01;64.00;;;11.57;;
47669;SDS011;33408;52.062;11.722;2023-07-22T08:51:30;18.70;;;5.53;;
47669;SDS011;33408;52.062;11.722;2023-07-22T08:53:58;19.42;;;6.03;;
47669;SDS011;33408;52.062;11.722;2023-07-22T08:56:26;10.45;;;4.25;;
47669;SDS011;33408;52.062;11.722;2023-07-22T08:58:54;13.35;;;4.60;;
47669;SDS011;33408;52.062;11.722;2023-07-22T09:01:21;9.35;;;4.15;;
47669;SDS011;33408;52.062;11.722;2023-07-22T09:03:48;9.40;;;4.93;;
47669;SDS011;33408;52.062;11.722;2023-07-22T09:06:19;26.60;;;6.55;;
47669;SDS011;33408;52.062;11.722;2023-07-22T09:08:45;14.07;;;5.03;;
47669;SDS011;33408;52.062;11.722;2023-07-22T09:11:13;16.58;;;5.25;;
47669;SDS011;33408;52.062;11.722;2023-07-22T09:13:40;13.55;;;5.20;;
47669;SDS011;33408;52.062;11.722;2023-07-22T09:16:10;14.82;;;5.35;;
47669;SDS011;33408;52.062;11.722;2023-07-22T09:18:39;11.02;;;4.50;;
47669;SDS011;33408;52.062;11.722;2023-07-22T09:21:05;14.20;;;5.35;;
47669;SDS011;33408;52.062;11.722;2023-07-22T09:23:33;49.40;;;8.35;;
47669;SDS011;33408;52.062;11.722;2023-07-22T09:26:10;16.80;;;5.63;;
47669;SDS011;33408;52.062;11.722;2023-07-22T09:28:47;10.70;;;4.97;;
47669;SDS011;33408;52.062;11.722;2023-07-22T09:31:14;14.48;;;5.28;;
47669;SDS011;33408;52.062;11.722;2023-07-22T09:33:41;14.43;;;4.65;;
47669;SDS011;33408;52.062;11.722;2023-07-22T09:36:09;11.73;;;5.13;;
47669;SDS011;33408;52.062;11.722;2023-07-22T09:38:38;14.05;;;5.72;;
47669;SDS011;33408;52.062;11.722;2023-07-22T09:41:04;11.13;;;5.07;;
47669;SDS011;33408;52.062;11.722;2023-07-22T09:43:31;14.52;;;5.20;;
47669;SDS011;33408;52.062;11.722;2023-07-22T09:46:06;8.67;;;4.60;;
47669;SDS011;33408;52.062;11.722;2023-07-22T09:48:39;8.43;;;4.63;;
47669;SDS011;33408;52.062;11.722;2023-07-22T09:51:10;9.98;;;5.05;;
47669;SDS011;33408;52.062;11.722;2023-07-22T09:53:44;9.25;;;4.55;;
47669;SDS011;33408;52.062;11.722;2023-07-22T09:56:12;7.85;;;4.38;;
47669;SDS011;33408;52.062;11.722;2023-07-22T09:58:38;37.40;;;7.78;;
47669;SDS011;33408;52.062;11.722;2023-07-22T10:01:08;9.95;;;5.15;;
47669;SDS011;33408;52.062;11.722;2023-07-22T10:03:39;15.70;;;6.15;;
47669;SDS011;33408;52.062;11.722;2023-07-22T10:06:09;28.67;;;6.00;;
47669;SDS011;33408;52.062;11.722;2023-07-22T10:08:38;21.30;;;6.00;;
47669;SDS011;33408;52.062;11.722;2023-07-22T10:11:06;10.20;;;5.15;;
47669;SDS011;33408;52.062;11.722;2023-07-22T10:13:36;16.20;;;6.95;;
47669;SDS011;33408;52.062;11.722;2023-07-22T10:16:04;11.43;;;6.55;;
47669;SDS011;33408;52.062;11.722;2023-07-22T10:18:33;10.00;;;5.22;;
47669;SDS011;33408;52.062;11.722;2023-07-22T10:21:02;9.77;;;6.10;;
47669;SDS011;33408;52.062;11.722;2023-07-22T10:23:29;9.35;;;5.80;;
47669;SDS011;33408;52.062;11.722;2023-07-22T10:25:57;9.57;;;6.00;;
47669;SDS011;33408;52.062;11.722;2023-07-22T10:28:25;12.63;;;5.80;;
47669;SDS011;33408;52.062;11.722;2023-07-22T10:30:52;17.77;;;7.15;;
47669;SDS011;33408;52.062;11.722;2023-07-22T10:33:19;10.10;;;5.97;;
47669;SDS011;33408;52.062;11.722;2023-07-22T10:36:01;12.07;;;6.65;;
47669;SDS011;33408;52.062;11.722;2023-07-22T10:38:29;13.90;;;5.80;;
47669;SDS011;33408;52.062;11.722;2023-07-22T10:40:56;10.88;;;6.35;;
47669;SDS011;33408;52.062;11.722;2023-07-22T10:43:24;8.40;;;5.90;;
47669;SDS011;33408;52.062;11.722;2023-07-22T10:45:54;12.27;;;6.30;;
47669;SDS011;33408;52.062;11.722;2023-07-22T10:48:22;9.50;;;6.25;;
47669;SDS011;33408;52.062;11.722;2023-07-22T10:50:51;11.88;;;5.93;;
47669;SDS011;33408;52.062;11.722;2023-07-22T10:53:20;12.30;;;6.55;;
47669;SDS011;33408;52.062;11.722;2023-07-22T10:56:03;8.45;;;5.80;;
47669;SDS011;33408;52.062;11.722;2023-07-22T11:01:32;10.65;;;6.75;;
47669;SDS011;33408;52.062;11.722;2023-07-22T11:04:07;14.13;;;7.40;;
47669;SDS011;33408;52.062;11.722;2023-07-22T11:06:39;12.55;;;7.25;;
47669;SDS011;33408;52.062;11.722;2023-07-22T11:12:03;10.57;;;6.13;;
47669;SDS011;33408;52.062;11.722;2023-07-22T11:14:33;10.27;;;5.78;;
47669;SDS011;33408;52.062;11.722;2023-07-22T11:17:01;13.38;;;6.53;;
47669;SDS011;33408;52.062;11.722;2023-07-22T11:19:30;17.17;;;4.90;;
47669;SDS011;33408;52.062;11.722;2023-07-22T11:21:57;7.53;;;4.20;;
47669;SDS011;33408;52.062;11.722;2023-07-22T11:24:23;7.00;;;3.90;;
47669;SDS011;33408;52.062;11.722;2023-07-22T11:26:50;7.60;;;3.55;;
47669;SDS011;33408;52.062;11.722;2023-07-22T11:29:18;10.88;;;4.30;;
47669;SDS011;33408;52.062;11.722;2023-07-22T11:31:47;10.20;;;4.28;;
47669;SDS011;33408;52.062;11.722;2023-07-22T11:34:15;8.60;;;4.38;;
47669;SDS011;33408;52.062;11.722;2023-07-22T11:36:43;9.93;;;4.30;;
47669;SDS011;33408;52.062;11.722;2023-07-22T11:39:11;10.45;;;4.82;;
47669;SDS011;33408;52.062;11.722;2023-07-22T11:41:38;6.80;;;3.65;;
47669;SDS011;33408;52.062;11.722;2023-07-22T11:44:07;8.73;;;4.50;;
47669;SDS011;33408;52.062;11.722;2023-07-22T11:46:35;8.43;;;3.80;;
47669;SDS011;33408;52.062;11.722;2023-07-22T11:49:03;12.20;;;4.43;;
47669;SDS011;33408;52.062;11.722;2023-07-22T11:51:30;8.55;;;3.63;;
47669;SDS011;33408;52.062;11.722;2023-07-22T11:53:58;11.15;;;3.80;;
47669;SDS011;33408;52.062;11.722;2023-07-22T11:56:25;6.32;;;3.53;;
47669;SDS011;33408;52.062;11.722;2023-07-22T11:58:53;10.02;;;3.40;;
47669;SDS011;33408;52.062;11.722;2023-07-22T12:01:21;17.40;;;4.20;;
47669;SDS011;33408;52.062;11.722;2023-07-22T12:03:48;12.27;;;4.38;;
47669;SDS011;33408;52.062;11.722;2023-07-22T12:06:17;11.95;;;3.80;;
47669;SDS011;33408;52.062;11.722;2023-07-22T12:08:44;9.65;;;3.53;;
47669;SDS011;33408;52.062;11.722;2023-07-22T12:11:17;6.60;;;3.10;;
47669;SDS011;33408;52.062;11.722;2023-07-22T12:13:44;5.07;;;2.80;;
47669;SDS011;33408;52.062;11.722;2023-07-22T12:16:20;6.88;;;2.95;;
47669;SDS011;33408;52.062;11.722;2023-07-22T12:18:49;6.97;;;3.25;;
47669;SDS011;33408;52.062;11.722;2023-07-22T12:21:17;6.20;;;3.42;;
47669;SDS011;33408;52.062;11.722;2023-07-22T12:23:45;7.80;;;3.10;;
47669;SDS011;33408;52.062;11.722;2023-07-22T12:26:12;7.90;;;3.67;;
47669;SDS011;33408;52.062;11.722;2023-07-22T12:28:38;7.43;;;3.50;;
47669;SDS011;33408;52.062;11.722;2023-07-22T12:31:05;44.33;;;6.28;;
47669;SDS011;33408;52.062;11.722;2023-07-22T12:33:32;58.65;;;7.43;;
47669;SDS011;33408;52.062;11.722;2023-07-22T12:35:58;18.85;;;4.65;;
47669;SDS011;33408;52.062;11.722;2023-07-22T12:38:26;27.63;;;4.80;;
47669;SDS011;33408;52.062;11.722;2023-07-22T12:40:53;34.38;;;6.78;;
47669;SDS011;33408;52.062;11.722;2023-07-22T12:43:19;17.95;;;5.13;;
47669;SDS011;33408;52.062;11.722;2023-07-22T12:45:46;7.47;;;3.97;;
47669;SDS011;33408;52.062;11.722;2023-07-22T12:48:12;8.63;;;3.58;;
47669;SDS011;33408;52.062;11.722;2023-07-22T12:50:39;8.02;;;3.78;;
47669;SDS011;33408;52.062;11.722;2023-07-22T12:53:06;7.93;;;3.90;;
47669;SDS011;33408;52.062;11.722;2023-07-22T12:55:34;8.80;;;4.20;;
47669;SDS011;33408;52.062;11.722;2023-07-22T12:58:01;9.10;;;3.92;;
47669;SDS011;33408;52.062;11.722;2023-07-22T13:00:28;9.25;;;4.10;;
47669;SDS011;33408;52.062;11.722;2023-07-22T13:02:54;7.95;;;3.90;;
47669;SDS011;33408;52.062;11.722;2023-07-22T13:05:22;6.65;;;4.28;;
47669;SDS011;33408;52.062;11.722;2023-07-22T13:07:48;8.73;;;4.70;;
47669;SDS011;33408;52.062;11.722;2023-07-22T13:10:15;8.45;;;4.38;;
47669;SDS011;33408;52.062;11.722;2023-07-22T13:12:46;8.20;;;4.15;;
47669;SDS011;33408;52.062;11.722;2023-07-22T13:15:13;9.00;;;4.90;;
47669;SDS011;33408;52.062;11.722;2023-07-22T13:17:39;8.07;;;4.47;;
47669;SDS011;33408;52.062;11.722;2023-07-22T13:20:06;8.50;;;4.47;;
47669;SDS011;33408;52.062;11.722;2023-07-22T13:22:34;8.25;;;5.00;;
47669;SDS011;33408;52.062;11.722;2023-07-22T13:25:01;8.75;;;4.32;;
47669;SDS011;33408;52.062;11.722;2023-07-22T13:27:28;8.77;;;4.82;;
47669;SDS011;33408;52.062;11.722;2023-07-22T13:29:56;7.07;;;4.75;;
47669;SDS011;33408;52.062;11.722;2023-07-22T13:32:22;6.68;;;4.47;;
47669;SDS011;33408;52.062;11.722;2023-07-22T13:34:49;7.22;;;4.22;;
47669;SDS011;33408;52.062;11.722;2023-07-22T13:37:15;7.22;;;3.92;;
47669;SDS011;33408;52.062;11.722;2023-07-22T13:39:42;8.10;;;4.68;;
47669;SDS011;33408;52.062;11.722;2023-07-22T13:42:12;9.15;;;4.55;;
47669;SDS011;33408;52.062;11.722;2023-07-22T13:44:38;6.50;;;3.88;;
47669;SDS011;33408;52.062;11.722;2023-07-22T13:47:06;10.98;;;4.63;;
47669;SDS011;33408;52.062;11.722;2023-07-22T13:49:33;6.80;;;4.07;;
47669;SDS011;33408;52.062;11.722;2023-07-22T13:51:59;6.65;;;4.18;;
47669;SDS011;33408;52.062;11.722;2023-07-22T13:54:26;7.28;;;4.72;;
47669;SDS011;33408;52.062;11.722;2023-07-22T13:56:52;8.57;;;4.70;;
47669;SDS011;33408;52.062;11.722;2023-07-22T13:59:19;8.30;;;4.20;;
47669;SDS011;33408;52.062;11.722;2023-07-22T14:01:46;7.00;;;4.32;;
47669;SDS011;33408;52.062;11.722;2023-07-22T14:04:14;6.13;;;3.65;;
47669;SDS011;33408;52.062;11.722;2023-07-22T14:06:41;7.03;;;4.10;;
47669;SDS011;33408;52.062;11.722;2023-07-22T14:09:07;6.78;;;3.65;;
47669;SDS011;33408;52.062;11.722;2023-07-22T14:11:34;6.80;;;4.05;;
47669;SDS011;33408;52.062;11.722;2023-07-22T14:14:01;7.13;;;4.28;;
47669;SDS011;33408;52.062;11.722;2023-07-22T14:16:27;7.63;;;3.47;;
47669;SDS011;33408;52.062;11.722;2023-07-22T14:18:54;7.93;;;3.88;;
47669;SDS011;33408;52.062;11.722;2023-07-22T14:21:22;6.10;;;3.88;;
47669;SDS011;33408;52.062;11.722;2023-07-22T14:23:48;8.13;;;4.20;;
47669;SDS011;33408;52.062;11.722;2023-07-22T14:26:15;6.72;;;4.07;;
47669;SDS011;33408;52.062;11.722;2023-07-22T14:28:41;6.53;;;4.15;;
47669;SDS011;33408;52.062;11.722;2023-07-22T14:31:08;7.78;;;4.10;;
47669;SDS011;33408;52.062;11.722;2023-07-22T14:33:34;7.50;;;4.65;;
47669;SDS011;33408;52.062;11.722;2023-07-22T14:36:01;7.32;;;4.43;;